createdAt,value
2023-02-28T00:00:40.321Z,101576.53
2023-02-28T00:03:09.738Z,101622.72
2023-02-28T00:05:40.601Z,101620.75
2023-02-28T00:08:10.443Z,101635.66
2023-02-28T00:10:40.693Z,101631.16
2023-02-28T00:13:12.926Z,101612.34
2023-02-28T00:15:46.409Z,101633.28
2023-02-28T00:18:15.806Z,101629.69
2023-02-28T00:20:49.422Z,101592.16
2023-02-28T00:23:19.186Z,101621.69
2023-02-28T00:25:48.948Z,101634.09
2023-02-28T00:28:18.567Z,101585.16
2023-02-28T00:30:48.493Z,101607.84
2023-02-28T00:33:18.126Z,101618.13
2023-02-28T00:35:49.793Z,101613.16
2023-02-28T00:38:19.220Z,101565.97
2023-02-28T00:40:48.659Z,101626.19
2023-02-28T00:43:18.080Z,101623.69
2023-02-28T00:45:47.984Z,101623.47
2023-02-28T00:48:17.197Z,101630.25
2023-02-28T00:50:46.657Z,101609.41
2023-02-28T00:53:17.571Z,101601.72
2023-02-28T00:55:47.506Z,101607.13
2023-02-28T00:58:16.938Z,101609.69
2023-02-28T01:00:50.479Z,101628.81
2023-02-28T01:03:21.357Z,101585.69
2023-02-28T01:05:50.939Z,101572.50
2023-02-28T01:08:21.623Z,101621.03
2023-02-28T01:10:51.926Z,101621.75
2023-02-28T01:13:22.351Z,101592.22
2023-02-28T01:15:54.307Z,101621.06
2023-02-28T01:18:33.496Z,101601.28
2023-02-28T01:21:06.581Z,101630.00
2023-02-28T01:23:37.512Z,101621.72
2023-02-28T01:26:08.264Z,101607.03
2023-02-28T01:28:37.751Z,101616.97
2023-02-28T01:31:07.643Z,101622.75
2023-02-28T01:33:38.394Z,101626.22
2023-02-28T01:36:09.877Z,101595.63
2023-02-28T01:38:41.251Z,101616.03
2023-02-28T01:41:16.750Z,101631.41
2023-02-28T01:43:59.001Z,101582.06
2023-02-28T01:46:28.482Z,101628.72
2023-02-28T01:49:03.560Z,101630.53
2023-02-28T01:51:38.208Z,101602.50
2023-02-28T01:54:21.195Z,101624.41
2023-02-28T01:56:56.741Z,101635.69
2023-02-28T01:59:31.985Z,101631.50
2023-02-28T02:02:02.537Z,101599.38
2023-02-28T02:04:49.736Z,101639.38
2023-02-28T02:07:36.144Z,101640.16
2023-02-28T02:10:51.884Z,101639.41
2023-02-28T02:13:59.399Z,101636.22
2023-02-28T02:16:39.082Z,101639.75
2023-02-28T02:19:49.190Z,101630.09
2023-02-28T02:23:13.131Z,101630.16
2023-02-28T02:25:47.961Z,101650.28
2023-02-28T02:29:19.545Z,101647.53
2023-02-28T02:32:59.350Z,101651.78
2023-02-28T02:35:50.965Z,101650.13
2023-02-28T02:38:29.772Z,101654.72
2023-02-28T02:41:10.184Z,101660.63
2023-02-28T02:43:45.343Z,101635.44
2023-02-28T02:46:18.760Z,101644.78
2023-02-28T02:48:49.253Z,101648.25
2023-02-28T02:51:24.002Z,101679.81
2023-02-28T02:53:57.550Z,101645.69
2023-02-28T02:56:34.469Z,101667.44
2023-02-28T02:59:10.340Z,101650.00
2023-02-28T03:01:41.048Z,101678.91
2023-02-28T03:04:14.467Z,101678.13
2023-02-28T03:06:45.580Z,101670.22
2023-02-28T03:09:14.829Z,101681.47
2023-02-28T03:11:44.980Z,101637.97
2023-02-28T03:14:41.986Z,101692.00
2023-02-28T03:17:50.996Z,101690.25
2023-02-28T03:20:35.351Z,101679.97
2023-02-28T03:23:15.983Z,101701.59
2023-02-28T03:25:57.850Z,101690.41
2023-02-28T03:28:35.033Z,101694.88
2023-02-28T03:31:10.784Z,101702.66
2023-02-28T03:33:43.313Z,101676.63
2023-02-28T03:36:17.111Z,101705.31
2023-02-28T03:38:51.254Z,101704.44
2023-02-28T03:41:24.466Z,101670.56
2023-02-28T03:43:59.279Z,101660.16
2023-02-28T03:46:34.181Z,101708.75
2023-02-28T03:49:07.394Z,101703.50
2023-02-28T03:51:38.341Z,101713.19
2023-02-28T03:54:16.030Z,101709.53
2023-02-28T03:56:51.568Z,101671.38
2023-02-28T03:59:25.291Z,101657.41
2023-02-28T04:01:54.375Z,101680.94
2023-02-28T04:04:24.149Z,101697.50
2023-02-28T04:07:02.705Z,101700.94
2023-02-28T04:09:33.178Z,101688.72
2023-02-28T04:12:02.938Z,101703.69
2023-02-28T04:14:32.009Z,101683.72
2023-02-28T04:17:01.414Z,101701.00
2023-02-28T04:19:30.600Z,101701.75
2023-02-28T04:21:59.846Z,101700.97
2023-02-28T04:24:30.264Z,101683.69
2023-02-28T04:27:01.014Z,101686.91
2023-02-28T04:29:32.933Z,101692.97
2023-02-28T04:32:03.842Z,101705.94
2023-02-28T04:34:34.507Z,101705.34
2023-02-28T04:37:13.385Z,101673.94
2023-02-28T04:39:44.095Z,101712.97
2023-02-28T04:42:15.881Z,101704.28
2023-02-28T04:44:45.131Z,101692.13
2023-02-28T04:47:15.061Z,101718.28
2023-02-28T04:49:44.563Z,101698.53
2023-02-28T04:52:14.504Z,101723.66
2023-02-28T04:54:43.661Z,101696.63
2023-02-28T04:57:14.790Z,101712.34
2023-02-28T04:59:44.406Z,101720.09
2023-02-28T05:02:13.432Z,101709.63
2023-02-28T05:04:43.316Z,101652.25
2023-02-28T05:07:12.612Z,101591.31
2023-02-28T05:09:42.129Z,101721.69
2023-02-28T05:12:12.397Z,101525.38
2023-02-28T05:14:43.199Z,101725.22
2023-02-28T05:17:13.058Z,101719.22
2023-02-28T05:19:42.509Z,101719.94
2023-02-28T05:22:16.530Z,101732.09
2023-02-28T05:24:45.872Z,101740.75
2023-02-28T05:27:15.203Z,101715.66
2023-02-28T05:29:46.280Z,101733.00
2023-02-28T05:32:16.035Z,101722.69
2023-02-28T05:34:45.269Z,101737.47
2023-02-28T05:37:16.072Z,101708.66
2023-02-28T05:39:45.158Z,101727.03
2023-02-28T05:42:14.397Z,101743.28
2023-02-28T05:44:43.539Z,101749.53
2023-02-28T05:47:16.669Z,101733.97
2023-02-28T05:49:45.812Z,101749.66
2023-02-28T05:52:15.448Z,101749.59
2023-02-28T05:54:44.948Z,101757.56
2023-02-28T05:57:23.937Z,101743.53
2023-02-28T05:59:53.699Z,101753.81
2023-02-28T06:02:24.347Z,101727.63
2023-02-28T06:04:53.416Z,101747.59
2023-02-28T06:07:23.520Z,101743.22
2023-02-28T06:09:52.866Z,101749.75
2023-02-28T06:12:22.305Z,101749.59
2023-02-28T06:14:51.625Z,101758.38
2023-02-28T06:17:24.819Z,101765.50
2023-02-28T06:19:54.492Z,101753.97
2023-02-28T06:22:23.742Z,101748.59
2023-02-28T06:24:53.841Z,101761.78
2023-02-28T06:27:23.528Z,101733.03
2023-02-28T06:29:56.969Z,101770.19
2023-02-28T06:32:27.650Z,101762.63
2023-02-28T06:34:59.443Z,101766.88
2023-02-28T06:37:29.238Z,101774.91
2023-02-28T06:39:58.785Z,101748.06
2023-02-28T06:42:29.986Z,101773.06
2023-02-28T06:44:59.954Z,101770.31
2023-02-28T06:47:30.667Z,101665.16
2023-02-28T06:50:02.634Z,101764.88
2023-02-28T06:52:32.166Z,101766.75
2023-02-28T06:55:02.135Z,101763.38
2023-02-28T06:57:33.326Z,101752.56
2023-02-28T07:00:06.291Z,101754.53
2023-02-28T07:02:38.610Z,101725.88
2023-02-28T07:05:09.523Z,101730.59
2023-02-28T07:07:41.864Z,101759.38
2023-02-28T07:10:13.730Z,101756.19
2023-02-28T07:12:43.188Z,101727.53
2023-02-28T07:15:14.030Z,101739.53
2023-02-28T07:17:44.804Z,101750.97
2023-02-28T07:20:15.396Z,101743.97
2023-02-28T07:22:45.297Z,101722.09
2023-02-28T07:25:14.959Z,101723.25
2023-02-28T07:27:44.301Z,101752.06
2023-02-28T07:30:15.495Z,101731.81
2023-02-28T07:32:47.832Z,101726.97
2023-02-28T07:35:17.415Z,101751.25
2023-02-28T07:37:48.203Z,101752.03
2023-02-28T07:40:22.233Z,101726.91
2023-02-28T07:42:51.574Z,101737.75
2023-02-28T07:45:21.423Z,101746.09
2023-02-28T07:47:51.969Z,101707.59
2023-02-28T07:50:21.161Z,101740.72
2023-02-28T07:52:50.383Z,101746.09
2023-02-28T07:55:20.188Z,101739.66
2023-02-28T07:57:49.991Z,101740.09
2023-02-28T08:00:19.824Z,101743.41
2023-02-28T08:02:50.114Z,101738.66
2023-02-28T08:05:22.117Z,101740.28
2023-02-28T08:07:54.562Z,101725.53
2023-02-28T08:10:24.886Z,101718.28
2023-02-28T08:12:54.386Z,101731.84
2023-02-28T08:15:24.097Z,101720.69
2023-02-28T08:17:53.690Z,101738.22
2023-02-28T08:20:25.928Z,101733.97
2023-02-28T08:22:56.021Z,101716.56
2023-02-28T08:25:25.531Z,101724.28
2023-02-28T08:27:55.641Z,101736.44
2023-02-28T08:30:25.448Z,101735.16
2023-02-28T08:32:55.551Z,101738.13
2023-02-28T08:35:26.918Z,101736.38
2023-02-28T08:37:56.950Z,101699.66
2023-02-28T08:40:26.260Z,101718.91
2023-02-28T08:42:55.392Z,101729.59
2023-02-28T08:45:24.554Z,101726.09
2023-02-28T08:47:54.859Z,101712.63
2023-02-28T08:50:25.970Z,101732.28
2023-02-28T08:52:55.343Z,101703.81
2023-02-28T08:55:24.558Z,101726.13
2023-02-28T08:57:56.079Z,101721.44
2023-02-28T09:00:26.323Z,101732.50
2023-02-28T09:02:56.290Z,101716.53
2023-02-28T09:05:26.882Z,101721.72
2023-02-28T09:07:56.494Z,101685.16
2023-02-28T09:10:25.925Z,101727.22
2023-02-28T09:12:55.573Z,101726.31
2023-02-28T09:15:25.614Z,101742.84
2023-02-28T09:17:56.526Z,101705.97
2023-02-28T09:20:26.847Z,101735.22
2023-02-28T09:22:57.414Z,101738.72
2023-02-28T09:25:27.165Z,101701.81
2023-02-28T09:27:57.029Z,101721.88
2023-02-28T09:30:27.319Z,101719.50
2023-02-28T09:32:56.877Z,101699.84
2023-02-28T09:35:28.658Z,101694.22
2023-02-28T09:38:00.130Z,101721.84
2023-02-28T09:40:30.528Z,101709.09
2023-02-28T09:43:02.233Z,101729.19
2023-02-28T09:45:35.466Z,101699.53
2023-02-28T09:48:11.571Z,101713.38
2023-02-28T09:50:47.065Z,101712.88
2023-02-28T09:53:23.167Z,101712.66
2023-02-28T09:55:56.999Z,101684.09
2023-02-28T09:58:30.730Z,101715.13
2023-02-28T10:01:06.931Z,101694.44
2023-02-28T10:03:41.246Z,101704.69
2023-02-28T10:06:16.715Z,101704.81
2023-02-28T10:08:53.575Z,101696.00
2023-02-28T10:11:24.933Z,101646.34
2023-02-28T10:14:02.556Z,101674.13
2023-02-28T10:16:36.954Z,101669.28
2023-02-28T10:19:14.305Z,101701.00
2023-02-28T10:21:50.921Z,101660.00
2023-02-28T10:24:25.651Z,101683.88
2023-02-28T10:27:01.972Z,101632.97
2023-02-28T10:29:35.678Z,101661.19
2023-02-28T10:32:06.451Z,101675.28
2023-02-28T10:34:35.821Z,101674.22
2023-02-28T10:37:09.424Z,101643.47
2023-02-28T10:39:43.328Z,101593.50
2023-02-28T10:42:27.268Z,101661.50
2023-02-28T10:45:12.282Z,101664.56
2023-02-28T10:47:54.902Z,101664.00
2023-02-28T10:50:44.707Z,101646.84
2023-02-28T10:53:36.104Z,101619.81
2023-02-28T10:56:18.035Z,101648.38
2023-02-28T10:58:55.956Z,101648.56
2023-02-28T11:01:36.204Z,101647.56
2023-02-28T11:04:18.299Z,101658.78
2023-02-28T11:06:48.573Z,101637.72
2023-02-28T11:09:26.095Z,101643.41
2023-02-28T11:11:55.930Z,101641.25
2023-02-28T11:14:29.788Z,101597.97
2023-02-28T11:17:04.095Z,101622.09
2023-02-28T11:19:47.845Z,101625.44
2023-02-28T11:22:21.756Z,101602.63
2023-02-28T11:24:54.279Z,101615.19
2023-02-28T11:27:48.771Z,101621.88
2023-02-28T11:30:38.105Z,101612.50
2023-02-28T11:33:34.417Z,101610.34
2023-02-28T11:36:12.366Z,101593.63
2023-02-28T11:38:44.260Z,101548.47
2023-02-28T11:41:41.518Z,101577.94
2023-02-28T11:44:37.979Z,101579.47
2023-02-28T11:47:14.653Z,101599.03
2023-02-28T11:49:54.768Z,101611.41
2023-02-28T11:52:42.044Z,101606.84
2023-02-28T11:55:20.627Z,101573.13
2023-02-28T11:58:15.728Z,101601.13
2023-02-28T12:01:16.978Z,101576.03
2023-02-28T12:03:58.017Z,101583.41
2023-02-28T12:06:35.402Z,101564.63
2023-02-28T12:09:25.884Z,101568.66
2023-02-28T12:12:02.512Z,101597.50
2023-02-28T12:15:05.795Z,101592.56
2023-02-28T12:17:51.220Z,101590.09
2023-02-28T12:20:32.772Z,101573.38
2023-02-28T12:23:21.873Z,101539.22
2023-02-28T12:26:03.365Z,101579.81
2023-02-28T12:28:36.710Z,101560.34
2023-02-28T12:31:11.825Z,101578.41
2023-02-28T12:33:46.179Z,101564.19
2023-02-28T12:36:23.142Z,101582.38
2023-02-28T12:38:58.691Z,101551.94
2023-02-28T12:41:35.875Z,101564.47
2023-02-28T12:44:14.033Z,101527.22
2023-02-28T12:46:50.690Z,101536.31
2023-02-28T12:49:26.708Z,101543.22
2023-02-28T12:51:56.816Z,101551.50
2023-02-28T12:54:31.411Z,101530.50
2023-02-28T12:57:11.507Z,101541.41
2023-02-28T12:59:45.347Z,101529.94
2023-02-28T13:02:51.247Z,101518.53
2023-02-28T13:05:42.217Z,101545.38
2023-02-28T13:08:58.982Z,101480.72
2023-02-28T13:11:31.970Z,101544.25
2023-02-28T13:14:03.658Z,101524.69
2023-02-28T13:16:57.532Z,101499.94
2023-02-28T13:19:30.194Z,101508.09
2023-02-28T13:22:01.932Z,101441.63
2023-02-28T13:24:46.627Z,101512.72
2023-02-28T13:27:40.112Z,101479.47
2023-02-28T13:30:48.477Z,101506.00
2023-02-28T13:33:26.726Z,101499.41
2023-02-28T13:36:27.925Z,101487.13
2023-02-28T13:39:01.630Z,101494.59
2023-02-28T13:41:58.063Z,101494.47
2023-02-28T13:44:28.643Z,101487.06
2023-02-28T13:47:30.334Z,101484.34
2023-02-28T13:50:25.216Z,101438.78
2023-02-28T13:53:25.754Z,101447.41
2023-02-28T13:56:03.642Z,101470.09
2023-02-28T13:58:51.142Z,101455.84
2023-02-28T14:01:34.862Z,101451.53
2023-02-28T14:04:27.509Z,101450.22
2023-02-28T14:06:59.654Z,101453.06
2023-02-28T14:09:31.115Z,101457.44
2023-02-28T14:12:40.160Z,101459.34
2023-02-28T14:15:43.213Z,101463.09
2023-02-28T14:18:28.778Z,101453.06
2023-02-28T14:21:10.596Z,101452.66
2023-02-28T14:24:14.389Z,101453.47
2023-02-28T14:26:59.696Z,101443.63
2023-02-28T14:30:18.117Z,101447.63
2023-02-28T14:32:57.175Z,101412.13
2023-02-28T14:35:46.125Z,101406.25
2023-02-28T14:38:22.483Z,101431.56
2023-02-28T14:40:55.326Z,101432.91
2023-02-28T14:43:27.231Z,101425.81
2023-02-28T14:45:59.757Z,101412.78
2023-02-28T14:48:30.081Z,101387.03
2023-02-28T14:51:01.865Z,101387.09
2023-02-28T14:53:38.518Z,101415.31
2023-02-28T14:56:09.763Z,101370.03
2023-02-28T14:58:39.306Z,101406.34
2023-02-28T15:01:13.394Z,101389.38
2023-02-28T15:03:45.820Z,101366.84
2023-02-28T15:06:17.088Z,101409.16
2023-02-28T15:08:47.500Z,101391.34
2023-02-28T15:11:20.229Z,101287.03
2023-02-28T15:13:51.970Z,101376.91
2023-02-28T15:16:24.644Z,101399.16
2023-02-28T15:18:57.199Z,101396.19
2023-02-28T15:21:29.489Z,101398.38
2023-02-28T15:24:02.736Z,101387.97
2023-02-28T15:26:35.484Z,101401.47
2023-02-28T15:29:08.405Z,101379.22
2023-02-28T15:31:56.397Z,101409.56
2023-02-28T15:34:40.552Z,101404.66
2023-02-28T15:37:31.070Z,101407.44
2023-02-28T15:40:07.171Z,101394.66
2023-02-28T15:42:37.025Z,101384.59
2023-02-28T15:45:09.151Z,101402.84
2023-02-28T15:47:40.322Z,101407.91
2023-02-28T15:50:16.263Z,101387.66
2023-02-28T15:52:47.301Z,101360.03
2023-02-28T15:55:21.715Z,101410.69
2023-02-28T15:57:55.401Z,101419.53
2023-02-28T16:00:25.919Z,101435.78
2023-02-28T16:02:57.034Z,101429.66
2023-02-28T16:05:33.515Z,101380.56
2023-02-28T16:08:12.515Z,101423.28
2023-02-28T16:10:42.446Z,101434.34
2023-02-28T16:13:17.064Z,101429.38
2023-02-28T16:15:46.562Z,101425.97
2023-02-28T16:18:17.382Z,101431.19
2023-02-28T16:20:46.853Z,101388.13
2023-02-28T16:23:16.147Z,101428.09
2023-02-28T16:25:47.778Z,101396.53
2023-02-28T16:28:22.797Z,101411.63
2023-02-28T16:30:53.831Z,101435.59
2023-02-28T16:33:24.822Z,101416.63
2023-02-28T16:35:54.453Z,101389.97
2023-02-28T16:38:24.423Z,101430.66
2023-02-28T16:41:02.161Z,101431.19
2023-02-28T16:43:31.942Z,101382.66
2023-02-28T16:46:02.558Z,101406.66
2023-02-28T16:48:33.484Z,101422.28
2023-02-28T16:51:05.378Z,101392.66
2023-02-28T16:53:35.586Z,101398.97
2023-02-28T16:56:07.844Z,101416.34
2023-02-28T16:58:37.843Z,101387.81
2023-02-28T17:01:07.519Z,101425.81
2023-02-28T17:03:38.702Z,101399.88
2023-02-28T17:06:18.647Z,101351.19
2023-02-28T17:08:48.391Z,101403.66
2023-02-28T17:11:17.958Z,101401.66
2023-02-28T17:13:47.858Z,101398.31
2023-02-28T17:16:23.045Z,101389.41
2023-02-28T17:18:56.051Z,101384.31
2023-02-28T17:21:25.698Z,101393.94
2023-02-28T17:23:55.704Z,101380.94
2023-02-28T17:26:26.312Z,101281.44
2023-02-28T17:28:57.032Z,101387.84
2023-02-28T17:31:28.475Z,101408.94
2023-02-28T17:33:59.587Z,101285.00
2023-02-28T17:36:30.200Z,101407.13
2023-02-28T17:39:00.845Z,101411.47
2023-02-28T17:41:31.785Z,101384.75
2023-02-28T17:44:01.088Z,101410.88
2023-02-28T17:46:31.486Z,101415.94
2023-02-28T17:49:02.676Z,101400.41
2023-02-28T17:51:32.304Z,101380.38
2023-02-28T17:54:02.079Z,101383.19
2023-02-28T17:56:31.865Z,101412.56
2023-02-28T17:59:02.673Z,101412.63
2023-02-28T18:01:33.469Z,101376.47
2023-02-28T18:04:05.471Z,101421.34
2023-02-28T18:06:47.488Z,101431.16
2023-02-28T18:09:19.576Z,101394.53
2023-02-28T18:11:51.338Z,101423.03
2023-02-28T18:14:24.612Z,101387.63
2023-02-28T18:16:56.146Z,101404.97
2023-02-28T18:19:27.136Z,101436.19
2023-02-28T18:21:58.358Z,101424.03
2023-02-28T18:24:28.825Z,101403.53
2023-02-28T18:26:58.584Z,101412.00
2023-02-28T18:29:29.711Z,101379.84
2023-02-28T18:31:59.770Z,101407.75
2023-02-28T18:34:31.653Z,101329.69
2023-02-28T18:37:01.424Z,101398.94
2023-02-28T18:39:32.126Z,101376.47
2023-02-28T18:42:02.010Z,101396.59
2023-02-28T18:44:32.010Z,101413.81
2023-02-28T18:47:02.565Z,101413.78
2023-02-28T18:49:35.880Z,101347.34
2023-02-28T18:52:05.722Z,101398.34
2023-02-28T18:54:37.040Z,101352.28
2023-02-28T18:57:06.843Z,101389.72
2023-02-28T18:59:36.667Z,101400.13
2023-02-28T19:02:06.294Z,101395.75
2023-02-28T19:04:37.167Z,101386.38
2023-02-28T19:07:07.713Z,101374.91
2023-02-28T19:09:37.722Z,101384.31
2023-02-28T19:12:08.385Z,101375.09
2023-02-28T19:14:38.440Z,101387.31
2023-02-28T19:17:08.101Z,101384.69
2023-02-28T19:19:39.326Z,101383.72
2023-02-28T19:22:09.543Z,101373.13
2023-02-28T19:24:39.143Z,101366.38
2023-02-28T19:27:08.866Z,101370.63
2023-02-28T19:29:38.708Z,101361.94
2023-02-28T19:32:08.616Z,101375.84
2023-02-28T19:34:39.945Z,101377.38
2023-02-28T19:37:09.462Z,101371.31
2023-02-28T19:39:42.273Z,101362.59
2023-02-28T19:42:13.299Z,101375.81
2023-02-28T19:44:45.129Z,101334.19
2023-02-28T19:47:14.938Z,101362.78
2023-02-28T19:49:46.224Z,101014.78
2023-02-28T19:52:15.768Z,101314.22
2023-02-28T19:54:45.512Z,101370.63
2023-02-28T19:57:16.747Z,101328.78
2023-02-28T19:59:47.174Z,101351.19
2023-02-28T20:02:19.272Z,101341.81
2023-02-28T20:04:52.632Z,101249.00
2023-02-28T20:07:23.958Z,101358.03
2023-02-28T20:09:55.912Z,101362.50
2023-02-28T20:12:26.369Z,101364.38
2023-02-28T20:14:57.565Z,101328.84
2023-02-28T20:17:27.654Z,101332.34
2023-02-28T20:19:58.608Z,101376.72
2023-02-28T20:22:28.643Z,101338.47
2023-02-28T20:24:58.200Z,101352.63
2023-02-28T20:27:27.962Z,101373.41
2023-02-28T20:29:57.482Z,101315.28
2023-02-28T20:32:27.669Z,101371.56
2023-02-28T20:34:58.599Z,101347.31
2023-02-28T20:37:29.351Z,101337.69
2023-02-28T20:39:59.588Z,101331.97
2023-02-28T20:42:28.919Z,101344.03
2023-02-28T20:44:58.691Z,101343.25
2023-02-28T20:47:29.264Z,101319.06
2023-02-28T20:50:00.169Z,101223.59
2023-02-28T20:52:29.545Z,101329.28
2023-02-28T20:54:59.597Z,101331.00
2023-02-28T20:57:30.326Z,101334.03
2023-02-28T21:00:00.008Z,101323.75
2023-02-28T21:02:29.461Z,101312.38
2023-02-28T21:05:00.038Z,101319.41
2023-02-28T21:07:29.697Z,101313.28
2023-02-28T21:09:59.245Z,101294.06
2023-02-28T21:12:28.907Z,101268.09
2023-02-28T21:14:58.866Z,101296.59
2023-02-28T21:17:30.263Z,101254.03
2023-02-28T21:20:02.824Z,101283.66
2023-02-28T21:22:34.708Z,101281.78
2023-02-28T21:25:06.194Z,101250.69
2023-02-28T21:27:36.182Z,101278.47
2023-02-28T21:30:06.909Z,101285.34
2023-02-28T21:32:36.384Z,101266.25
2023-02-28T21:35:07.780Z,101212.31
2023-02-28T21:37:39.516Z,101269.78
2023-02-28T21:40:10.283Z,101255.97
2023-02-28T21:42:39.907Z,101236.00
2023-02-28T21:45:10.091Z,101248.03
2023-02-28T21:47:41.392Z,101239.25
2023-02-28T21:50:15.471Z,101236.00
2023-02-28T21:52:46.334Z,101234.06
2023-02-28T21:55:15.901Z,101204.53
2023-02-28T21:57:45.494Z,101195.72
2023-02-28T22:00:17.390Z,101198.44
2023-02-28T22:02:47.379Z,101180.88
2023-02-28T22:05:21.950Z,101223.31
2023-02-28T22:07:51.601Z,101228.66
2023-02-28T22:10:21.181Z,101226.91
2023-02-28T22:12:50.756Z,101240.75
2023-02-28T22:15:19.923Z,101246.84
2023-02-28T22:17:49.629Z,101231.84
2023-02-28T22:20:19.126Z,101209.50
2023-02-28T22:22:50.258Z,101237.28
2023-02-28T22:25:19.934Z,101234.59
2023-02-28T22:27:49.392Z,101205.16
2023-02-28T22:30:19.598Z,101220.00
2023-02-28T22:32:48.891Z,101213.69
2023-02-28T22:35:19.654Z,101223.44
2023-02-28T22:37:59.692Z,101220.91
2023-02-28T22:40:35.554Z,101220.13
2023-02-28T22:43:15.756Z,101223.34
2023-02-28T22:45:52.894Z,101154.34
2023-02-28T22:48:36.485Z,101222.63
2023-02-28T22:51:16.877Z,101227.72
2023-02-28T22:54:01.494Z,101232.03
2023-02-28T22:57:04.540Z,101233.00
2023-02-28T22:59:37.089Z,101231.44
2023-02-28T23:02:06.599Z,101197.66
2023-02-28T23:05:39.181Z,101219.31
2023-02-28T23:12:41.355Z,101194.84
2023-02-28T23:15:27.346Z,101216.81
2023-02-28T23:17:56.903Z,101182.75
2023-02-28T23:20:26.669Z,101177.53
2023-02-28T23:22:56.341Z,101193.38
2023-02-28T23:25:25.597Z,101138.81
2023-02-28T23:27:56.514Z,101188.91
2023-02-28T23:30:26.296Z,101174.28
2023-02-28T23:32:55.532Z,101172.56
2023-02-28T23:35:24.768Z,101190.78
2023-02-28T23:37:54.080Z,101169.81
2023-02-28T23:40:23.516Z,101173.34
2023-02-28T23:42:53.767Z,101164.41
2023-02-28T23:45:24.258Z,101169.75
2023-02-28T23:47:53.579Z,101183.69
2023-02-28T23:50:22.962Z,101170.69
2023-02-28T23:52:52.389Z,101182.03
2023-02-28T23:55:22.240Z,101176.66
2023-02-28T23:57:51.841Z,101133.53
